createdAt,value
2023-04-17T00:02:06.408Z,8.11
2023-04-17T00:04:35.889Z,8.30
2023-04-17T00:07:08.743Z,8.74
2023-04-17T00:09:41.923Z,8.44
2023-04-17T00:12:14.578Z,8.33
2023-04-17T00:14:47.521Z,7.98
2023-04-17T00:17:16.705Z,8.38
2023-04-17T00:19:47.474Z,8.31
2023-04-17T00:22:16.882Z,8.36
2023-04-17T00:30:32.709Z,7.90
2023-04-17T00:33:05.886Z,7.73
2023-04-17T00:35:44.180Z,7.89
2023-04-17T00:38:19.025Z,7.84
2023-04-17T00:40:49.637Z,7.73
2023-04-17T00:43:19.164Z,7.91
2023-04-17T00:45:49.976Z,7.94
2023-04-17T00:48:23.997Z,8.46
2023-04-17T00:50:53.786Z,9.41
2023-04-17T00:53:27.819Z,9.66
2023-04-17T00:56:01.422Z,10.11
2023-04-17T00:58:35.147Z,10.24
2023-04-17T01:01:10.657Z,10.76
2023-04-17T01:03:52.223Z,10.41
2023-04-17T01:06:25.043Z,10.03
2023-04-17T01:08:56.513Z,9.04
2023-04-17T01:11:26.604Z,8.77
2023-04-17T01:14:01.446Z,8.55
2023-04-17T01:16:34.782Z,8.30
2023-04-17T01:19:05.026Z,8.21
2023-04-17T01:21:37.276Z,7.96
2023-04-17T01:24:08.878Z,7.97
2023-04-17T01:26:45.429Z,7.86
2023-04-17T01:29:25.381Z,7.81
2023-04-17T01:31:54.568Z,7.84
2023-04-17T01:34:24.447Z,7.78
2023-04-17T01:36:54.207Z,7.81
2023-04-17T01:39:26.314Z,7.75
2023-04-17T01:41:55.894Z,7.84
2023-04-17T01:44:24.948Z,7.97
2023-04-17T01:46:54.076Z,7.69
2023-04-17T01:49:24.471Z,7.83
2023-04-17T01:51:53.951Z,7.66
2023-04-17T01:54:23.254Z,7.79
2023-04-17T01:56:52.877Z,7.59
2023-04-17T01:59:21.902Z,7.58
2023-04-17T02:01:54.844Z,7.62
2023-04-17T02:04:24.246Z,7.58
2023-04-17T02:07:03.019Z,7.51
2023-04-17T02:09:33.182Z,7.47
2023-04-17T02:12:06.037Z,7.52
2023-04-17T02:14:36.810Z,7.56
2023-04-17T02:17:09.262Z,7.68
2023-04-17T02:19:45.075Z,7.72
2023-04-17T02:22:18.449Z,7.91
2023-04-17T02:24:51.329Z,7.99
2023-04-17T02:27:22.853Z,7.81
2023-04-17T02:29:52.447Z,7.87
2023-04-17T02:32:22.143Z,7.83
2023-04-17T02:34:52.200Z,7.90
2023-04-17T02:37:25.165Z,7.73
2023-04-17T02:39:57.370Z,7.67
2023-04-17T02:42:26.715Z,7.61
2023-04-17T02:44:59.002Z,7.46
2023-04-17T02:47:29.001Z,7.41
2023-04-17T02:50:01.500Z,7.43
2023-04-17T02:52:35.611Z,7.34
2023-04-17T02:55:05.707Z,7.29
2023-04-17T02:57:36.020Z,7.15
2023-04-17T03:00:15.789Z,7.12
2023-04-17T03:02:45.270Z,7.08
2023-04-17T03:05:18.615Z,7.09
2023-04-17T03:07:48.094Z,6.97
2023-04-17T03:10:17.970Z,6.88
2023-04-17T03:12:48.476Z,6.91
2023-04-17T03:15:20.387Z,6.80
2023-04-17T03:17:50.598Z,6.76
2023-04-17T03:20:19.971Z,6.78
2023-04-17T03:22:50.236Z,6.77
2023-04-17T03:25:19.653Z,6.76
2023-04-17T03:27:55.722Z,6.73
2023-04-17T03:30:30.775Z,6.62
2023-04-17T03:33:05.692Z,6.60
2023-04-17T03:35:35.097Z,6.64
2023-04-17T03:38:08.095Z,6.64
2023-04-17T03:40:37.783Z,6.66
2023-04-17T03:43:10.785Z,6.68
2023-04-17T03:45:43.283Z,6.76
2023-04-17T03:48:13.485Z,6.81
2023-04-17T03:50:47.378Z,6.83
2023-04-17T03:53:20.577Z,6.88
2023-04-17T03:55:52.111Z,6.96
2023-04-17T03:58:28.440Z,7.02
2023-04-17T04:01:01.516Z,6.95
2023-04-17T04:03:52.722Z,7.03
2023-04-17T04:06:30.684Z,6.81
2023-04-17T04:09:01.465Z,6.60
2023-04-17T04:11:30.763Z,6.64
2023-04-17T04:14:00.619Z,6.65
2023-04-17T04:16:30.062Z,6.53
2023-04-17T04:19:07.675Z,6.46
2023-04-17T04:21:36.893Z,6.50
2023-04-17T04:24:09.423Z,6.29
2023-04-17T04:26:41.838Z,6.09
2023-04-17T04:29:12.583Z,6.01
2023-04-17T04:31:59.983Z,5.79
2023-04-17T04:34:37.341Z,5.29
2023-04-17T04:37:06.371Z,5.04
2023-04-17T04:39:41.388Z,5.18
2023-04-17T04:42:12.752Z,5.25
2023-04-17T04:44:56.635Z,5.27
2023-04-17T04:47:29.232Z,5.07
2023-04-17T04:49:58.276Z,5.16
2023-04-17T04:52:27.652Z,5.14
2023-04-17T04:55:00.643Z,5.06
2023-04-17T04:57:31.454Z,5.00
2023-04-17T05:00:03.365Z,5.20
2023-04-17T05:02:40.372Z,4.82
2023-04-17T05:05:11.765Z,4.91
2023-04-17T05:07:40.929Z,4.87
2023-04-17T05:10:13.238Z,4.89
2023-04-17T05:12:47.801Z,4.77
2023-04-17T05:15:18.713Z,4.85
2023-04-17T05:17:56.638Z,4.78
2023-04-17T05:20:30.415Z,4.60
2023-04-17T05:23:00.418Z,4.62
2023-04-17T05:25:29.814Z,4.62
2023-04-17T05:28:00.087Z,4.52
2023-04-17T05:30:29.457Z,4.45
2023-04-17T05:33:10.274Z,4.55
2023-04-17T05:35:54.081Z,4.36
2023-04-17T05:38:25.327Z,4.43
2023-04-17T05:40:55.406Z,4.31
2023-04-17T05:43:24.348Z,4.51
2023-04-17T05:45:56.212Z,4.50
2023-04-17T05:48:25.337Z,4.54
2023-04-17T05:50:54.705Z,4.41
2023-04-17T05:53:24.952Z,4.26
2023-04-17T05:55:58.502Z,4.14
2023-04-17T05:58:28.096Z,4.17
2023-04-17T06:00:59.827Z,4.27
2023-04-17T06:03:30.851Z,4.31
2023-04-17T06:06:22.509Z,4.21
2023-04-17T06:08:55.633Z,4.17
2023-04-17T06:11:25.224Z,4.32
2023-04-17T06:13:55.089Z,4.30
2023-04-17T06:16:24.461Z,4.39
2023-04-17T06:18:54.141Z,4.28
2023-04-17T06:21:31.665Z,4.07
2023-04-17T06:24:04.768Z,4.39
2023-04-17T06:26:33.990Z,4.27
2023-04-17T06:29:03.490Z,4.28
2023-04-17T06:31:34.156Z,4.62
2023-04-17T06:34:03.599Z,4.71
2023-04-17T06:36:37.873Z,4.67
2023-04-17T06:39:07.207Z,4.68
2023-04-17T06:41:39.607Z,4.54
2023-04-17T06:44:08.939Z,4.74
2023-04-17T06:46:48.405Z,4.37
2023-04-17T06:49:17.722Z,4.26
2023-04-17T06:51:48.142Z,4.38
2023-04-17T06:54:18.957Z,4.50
2023-04-17T06:56:49.097Z,4.73
2023-04-17T06:59:19.193Z,4.77
2023-04-17T07:01:49.596Z,4.74
2023-04-17T07:04:19.098Z,4.72
2023-04-17T07:06:49.263Z,4.74
2023-04-17T07:09:18.390Z,4.60
2023-04-17T07:11:47.338Z,4.67
2023-04-17T07:14:19.613Z,4.27
2023-04-17T07:16:48.709Z,4.50
2023-04-17T07:19:17.722Z,4.39
2023-04-17T07:21:46.918Z,4.52
2023-04-17T07:24:16.127Z,4.41
2023-04-17T07:26:45.984Z,4.48
2023-04-17T07:29:15.075Z,4.42
2023-04-17T07:31:44.231Z,4.48
2023-04-17T07:34:13.712Z,4.29
2023-04-17T07:36:42.785Z,4.35
2023-04-17T07:39:12.121Z,4.40
2023-04-17T07:41:41.332Z,4.35
2023-04-17T07:44:10.343Z,4.26
2023-04-17T07:46:43.098Z,4.35
2023-04-17T07:49:12.637Z,4.39
2023-04-17T07:51:42.029Z,4.46
2023-04-17T07:54:11.145Z,4.29
2023-04-17T07:56:41.171Z,4.28
2023-04-17T07:59:10.488Z,4.21
2023-04-17T08:01:41.892Z,4.36
2023-04-17T08:04:11.395Z,4.17
2023-04-17T08:06:40.494Z,3.97
2023-04-17T08:09:10.888Z,3.78
2023-04-17T08:11:53.388Z,3.86
2023-04-17T08:14:25.858Z,3.92
2023-04-17T08:16:54.985Z,4.00
2023-04-17T08:19:24.181Z,3.87
2023-04-17T08:22:01.727Z,3.81
2023-04-17T08:24:32.714Z,3.78
2023-04-17T08:27:02.337Z,3.89
2023-04-17T08:29:31.590Z,3.83
2023-04-17T08:32:14.184Z,3.51
2023-04-17T08:34:46.451Z,3.80
2023-04-17T08:37:15.581Z,3.85
2023-04-17T08:39:44.677Z,3.77
2023-04-17T08:42:17.747Z,3.89
2023-04-17T08:44:48.039Z,3.66
2023-04-17T08:47:21.909Z,3.67
2023-04-17T08:49:51.304Z,3.93
2023-04-17T08:52:20.341Z,3.86
2023-04-17T08:54:51.293Z,3.82
2023-04-17T08:57:23.465Z,3.60
2023-04-17T08:59:52.505Z,3.79
2023-04-17T09:02:22.148Z,3.64
2023-04-17T09:04:57.021Z,3.66
2023-04-17T09:07:33.405Z,3.79
2023-04-17T09:10:02.597Z,3.72
2023-04-17T09:12:32.330Z,3.67
2023-04-17T09:15:01.526Z,3.71
2023-04-17T09:17:35.681Z,3.47
2023-04-17T09:20:15.210Z,3.57
2023-04-17T09:22:44.428Z,3.80
2023-04-17T09:25:21.178Z,3.50
2023-04-17T09:27:50.333Z,3.68
2023-04-17T09:30:19.718Z,3.44
2023-04-17T09:32:49.065Z,3.60
2023-04-17T09:35:27.486Z,3.54
2023-04-17T09:37:59.688Z,3.44
2023-04-17T09:40:38.791Z,3.39
2023-04-17T09:43:16.406Z,3.19
2023-04-17T09:45:46.652Z,3.45
2023-04-17T09:48:19.388Z,3.51
2023-04-17T09:50:49.498Z,3.52
2023-04-17T09:53:21.991Z,3.45
2023-04-17T09:55:54.025Z,3.43
2023-04-17T09:58:27.105Z,3.44
2023-04-17T10:00:58.836Z,3.43
2023-04-17T10:03:28.240Z,3.46
2023-04-17T10:06:01.703Z,3.53
2023-04-17T10:08:31.860Z,3.45
2023-04-17T10:11:10.478Z,3.41
2023-04-17T10:13:41.642Z,3.42
2023-04-17T10:16:11.250Z,3.40
2023-04-17T10:18:40.443Z,3.46
2023-04-17T10:21:24.165Z,3.41
2023-04-17T10:23:54.911Z,3.38
2023-04-17T10:26:28.069Z,3.39
2023-04-17T10:29:00.863Z,3.34
2023-04-17T10:32:10.771Z,3.30
2023-04-17T10:34:41.906Z,3.30
2023-04-17T10:37:16.867Z,3.21
2023-04-17T10:40:02.509Z,3.19
2023-04-17T10:42:31.813Z,3.12
2023-04-17T10:45:05.175Z,3.08
2023-04-17T10:47:37.440Z,3.09
2023-04-17T10:50:10.859Z,3.13
2023-04-17T10:52:42.889Z,3.08
2023-04-17T10:55:21.612Z,2.96
2023-04-17T10:57:55.799Z,2.99
2023-04-17T11:00:33.496Z,3.02
2023-04-17T11:03:06.081Z,3.01
2023-04-17T11:05:36.683Z,2.84
2023-04-17T11:08:06.666Z,2.69
2023-04-17T11:10:38.169Z,2.58
2023-04-17T11:13:07.519Z,2.73
2023-04-17T11:15:39.716Z,2.80
2023-04-17T11:18:08.880Z,2.64
2023-04-17T11:20:38.735Z,2.80
2023-04-17T11:23:08.460Z,2.75
2023-04-17T11:25:38.731Z,2.81
2023-04-17T11:28:08.263Z,2.68
2023-04-17T11:30:43.021Z,2.81
2023-04-17T11:33:16.915Z,2.87
2023-04-17T11:35:46.115Z,2.85
2023-04-17T11:38:23.530Z,2.83
2023-04-17T11:40:59.992Z,2.80
2023-04-17T11:43:42.340Z,2.78
2023-04-17T11:46:11.498Z,2.51
2023-04-17T11:48:41.344Z,2.45
2023-04-17T11:51:10.443Z,2.69
2023-04-17T11:53:49.112Z,2.80
2023-04-17T11:56:20.560Z,2.69
2023-04-17T11:58:54.549Z,2.73
2023-04-17T12:01:26.264Z,2.72
2023-04-17T12:04:00.038Z,2.84
2023-04-17T12:06:39.400Z,2.91
2023-04-17T12:09:22.074Z,2.85
2023-04-17T12:11:51.797Z,2.92
2023-04-17T12:14:20.950Z,2.93
2023-04-17T12:16:51.373Z,2.84
2023-04-17T12:19:23.480Z,2.71
2023-04-17T12:21:53.368Z,2.66
2023-04-17T12:24:25.224Z,2.56
2023-04-17T12:26:54.654Z,2.35
2023-04-17T12:29:36.152Z,2.66
2023-04-17T12:32:11.909Z,2.68
2023-04-17T12:34:41.368Z,2.66
2023-04-17T12:37:10.589Z,2.67
2023-04-17T12:39:39.894Z,2.76
2023-04-17T12:42:08.907Z,2.71
2023-04-17T12:44:38.017Z,2.70
2023-04-17T12:47:07.289Z,2.67
2023-04-17T12:49:37.135Z,2.66
2023-04-17T12:52:06.399Z,2.78
2023-04-17T12:54:35.378Z,2.77
2023-04-17T12:57:04.483Z,2.79
2023-04-17T12:59:34.182Z,2.91
2023-04-17T13:02:03.767Z,2.87
2023-04-17T13:04:33.226Z,3.06
2023-04-17T13:07:02.426Z,2.91
2023-04-17T13:09:31.421Z,2.88
2023-04-17T13:12:02.981Z,2.86
2023-04-17T13:14:32.182Z,2.82
2023-04-17T13:17:01.805Z,2.83
2023-04-17T13:19:35.223Z,3.03
2023-04-17T13:22:04.286Z,3.05
2023-04-17T13:24:33.221Z,2.98
2023-04-17T13:27:02.398Z,3.00
2023-04-17T13:29:32.182Z,3.01
2023-04-17T13:32:01.527Z,3.02
2023-04-17T13:34:30.714Z,2.99
2023-04-17T13:37:02.958Z,3.22
2023-04-17T13:39:32.231Z,3.32
2023-04-17T13:42:01.232Z,3.21
2023-04-17T13:44:30.465Z,3.22
2023-04-17T13:47:04.586Z,3.38
2023-04-17T13:49:33.553Z,3.10
2023-04-17T13:52:02.586Z,3.24
2023-04-17T13:54:34.059Z,3.26
2023-04-17T13:57:03.536Z,3.17
2023-04-17T13:59:32.611Z,3.25
2023-04-17T14:02:04.708Z,3.29
2023-04-17T14:04:34.316Z,3.22
2023-04-17T14:07:03.760Z,3.26
2023-04-17T14:09:32.792Z,3.16
2023-04-17T14:12:03.147Z,3.10
2023-04-17T14:14:32.073Z,3.19
2023-04-17T14:17:03.249Z,3.10
2023-04-17T14:19:35.716Z,3.27
2023-04-17T14:22:04.778Z,3.24
2023-04-17T14:24:33.724Z,3.06
2023-04-17T14:27:03.275Z,3.24
2023-04-17T14:29:32.506Z,3.13
2023-04-17T14:32:04.058Z,3.02
2023-04-17T14:34:33.159Z,3.00
2023-04-17T14:37:03.631Z,2.99
2023-04-17T14:39:33.803Z,3.13
2023-04-17T14:42:03.351Z,3.17
2023-04-17T14:44:33.488Z,3.24
2023-04-17T14:47:03.415Z,3.34
2023-04-17T14:49:33.153Z,3.31
2023-04-17T14:52:05.456Z,3.44
2023-04-17T14:54:34.429Z,3.64
2023-04-17T14:57:03.512Z,3.47
2023-04-17T14:59:32.667Z,3.48
2023-04-17T15:02:07.952Z,3.72
2023-04-17T15:04:37.614Z,3.79
2023-04-17T15:07:06.631Z,3.76
2023-04-17T15:09:36.196Z,3.86
2023-04-17T15:12:05.639Z,4.00
2023-04-17T15:14:36.718Z,3.96
2023-04-17T15:17:07.761Z,4.02
2023-04-17T15:19:39.749Z,4.19
2023-04-17T15:22:10.340Z,4.27
2023-04-17T15:24:39.498Z,4.30
2023-04-17T15:27:08.651Z,4.32
2023-04-17T15:29:37.680Z,4.62
2023-04-17T15:32:07.180Z,4.60
2023-04-17T15:34:40.815Z,4.76
2023-04-17T15:37:11.625Z,4.74
2023-04-17T15:39:44.009Z,4.93
2023-04-17T15:42:13.581Z,4.85
2023-04-17T15:44:43.554Z,5.12
2023-04-17T15:47:12.933Z,5.16
2023-04-17T15:49:42.340Z,5.13
2023-04-17T15:52:11.635Z,5.29
2023-04-17T15:54:41.146Z,5.30
2023-04-17T15:57:10.618Z,5.61
2023-04-17T15:59:39.928Z,5.90
2023-04-17T16:02:11.886Z,6.26
2023-04-17T16:04:44.029Z,6.37
2023-04-17T16:07:14.897Z,6.49
2023-04-17T16:09:45.498Z,6.40
2023-04-17T16:12:14.726Z,6.57
2023-04-17T16:14:44.067Z,6.78
2023-04-17T16:17:13.572Z,6.99
2023-04-17T16:19:43.279Z,6.78
2023-04-17T16:22:15.480Z,7.08
2023-04-17T16:24:44.759Z,7.20
2023-04-17T16:27:14.808Z,7.15
2023-04-17T16:29:44.116Z,7.34
2023-04-17T16:32:15.086Z,7.31
2023-04-17T16:34:44.543Z,7.39
2023-04-17T16:37:15.776Z,7.41
2023-04-17T16:39:46.144Z,7.73
2023-04-17T16:42:15.731Z,7.84
2023-04-17T16:44:47.382Z,8.07
2023-04-17T16:47:16.785Z,8.06
2023-04-17T16:49:46.178Z,8.27
2023-04-17T16:52:19.710Z,8.45
2023-04-17T16:54:51.733Z,8.40
2023-04-17T16:57:21.981Z,8.77
2023-04-17T16:59:53.307Z,8.97
2023-04-17T17:02:22.798Z,8.76
2023-04-17T17:04:52.548Z,8.83
2023-04-17T17:07:23.025Z,8.96
2023-04-17T17:09:52.363Z,9.07
2023-04-17T17:12:21.691Z,9.14
2023-04-17T17:14:50.900Z,9.23
2023-04-17T17:17:20.272Z,9.10
2023-04-17T17:19:49.469Z,9.35
2023-04-17T17:22:18.851Z,9.51
2023-04-17T17:24:57.284Z,9.32
2023-04-17T17:27:26.507Z,9.51
2023-04-17T17:29:57.900Z,9.52
2023-04-17T17:32:30.771Z,9.72
2023-04-17T17:35:00.322Z,9.72
2023-04-17T17:37:29.652Z,9.88
2023-04-17T17:39:58.892Z,9.96
2023-04-17T17:42:28.138Z,9.87
2023-04-17T17:44:57.342Z,10.03
2023-04-17T17:47:26.758Z,10.24
2023-04-17T17:49:56.111Z,10.24
2023-04-17T17:52:25.457Z,10.25
2023-04-17T17:54:54.794Z,10.46
2023-04-17T17:57:27.696Z,10.73
2023-04-17T18:00:02.281Z,10.51
2023-04-17T18:02:34.190Z,10.81
2023-04-17T18:05:07.103Z,11.01
2023-04-17T18:07:36.704Z,11.03
2023-04-17T18:10:08.146Z,10.87
2023-04-17T18:12:37.350Z,11.15
2023-04-17T18:15:07.405Z,11.18
2023-04-17T18:17:36.786Z,11.33
2023-04-17T18:20:11.677Z,11.40
2023-04-17T18:22:41.094Z,11.53
2023-04-17T18:25:10.963Z,11.67
2023-04-17T18:27:43.227Z,11.83
2023-04-17T18:30:12.980Z,11.64
2023-04-17T18:32:42.341Z,11.67
2023-04-17T18:35:11.861Z,11.65
2023-04-17T18:37:41.223Z,11.52
2023-04-17T18:40:11.376Z,11.58
2023-04-17T18:42:40.811Z,11.67
2023-04-17T18:45:10.904Z,11.35
2023-04-17T18:47:40.166Z,11.54
2023-04-17T18:50:10.189Z,11.68
2023-04-17T18:52:46.809Z,11.77
2023-04-17T18:55:20.903Z,11.68
2023-04-17T18:57:50.153Z,11.80
2023-04-17T19:00:19.471Z,11.88
2023-04-17T19:02:49.096Z,11.89
2023-04-17T19:05:21.796Z,11.81
2023-04-17T19:07:52.673Z,11.69
2023-04-17T19:10:25.679Z,11.56
2023-04-17T19:12:55.129Z,11.29
2023-04-17T19:15:30.676Z,11.95
2023-04-17T19:18:00.780Z,12.03
2023-04-17T19:20:32.147Z,12.23
2023-04-17T19:23:02.744Z,12.15
2023-04-17T19:25:32.038Z,11.89
2023-04-17T19:28:01.388Z,11.86
2023-04-17T19:30:30.763Z,12.28
2023-04-17T19:33:00.006Z,12.14
2023-04-17T19:35:29.454Z,12.14
2023-04-17T19:37:58.741Z,12.17
2023-04-17T19:40:28.329Z,12.18
2023-04-17T19:43:02.249Z,12.12
2023-04-17T19:45:35.652Z,11.97
2023-04-17T19:48:05.353Z,11.92
2023-04-17T19:50:37.507Z,11.75
2023-04-17T19:53:07.195Z,11.55
2023-04-17T19:55:36.664Z,11.45
2023-04-17T19:58:05.802Z,11.45
2023-04-17T20:00:37.774Z,11.25
2023-04-17T20:03:09.352Z,11.00
2023-04-17T20:05:39.061Z,10.98
2023-04-17T20:08:10.182Z,10.78
2023-04-17T20:10:39.506Z,10.69
2023-04-17T20:13:08.933Z,10.62
2023-04-17T20:15:38.553Z,10.47
2023-04-17T20:18:12.316Z,10.44
2023-04-17T20:20:41.638Z,10.45
2023-04-17T20:23:10.905Z,10.39
2023-04-17T20:25:40.377Z,10.42
2023-04-17T20:28:10.585Z,10.39
2023-04-17T20:30:40.269Z,10.18
2023-04-17T20:33:10.610Z,10.10
2023-04-17T20:35:40.030Z,10.10
2023-04-17T20:38:12.243Z,9.89
2023-04-17T20:40:43.450Z,9.82
2023-04-17T20:43:14.136Z,9.97
2023-04-17T20:45:43.555Z,10.04
2023-04-17T20:48:12.762Z,9.97
2023-04-17T20:50:43.773Z,10.01
2023-04-17T20:53:13.086Z,9.99
2023-04-17T20:55:42.350Z,10.10
2023-04-17T20:58:11.846Z,10.13
2023-04-17T21:00:50.684Z,10.13
2023-04-17T21:03:27.738Z,10.14
2023-04-17T21:05:58.598Z,10.28
2023-04-17T21:08:28.481Z,10.35
2023-04-17T21:10:58.444Z,10.32
2023-04-17T21:13:28.545Z,10.34
2023-04-17T21:15:57.938Z,10.32
2023-04-17T21:18:29.936Z,10.37
2023-04-17T21:21:04.703Z,10.29
2023-04-17T21:23:34.464Z,10.14
2023-04-17T21:26:05.762Z,9.98
2023-04-17T21:28:39.924Z,9.91
2023-04-17T21:31:11.950Z,9.80
2023-04-17T21:33:41.310Z,9.83
2023-04-17T21:36:10.936Z,9.62
2023-04-17T21:38:40.470Z,9.67
2023-04-17T21:41:13.270Z,9.57
2023-04-17T21:43:42.607Z,9.72
2023-04-17T21:46:12.666Z,9.69
2023-04-17T21:48:42.024Z,9.73
2023-04-17T21:51:14.436Z,9.73
2023-04-17T21:53:44.904Z,9.81
2023-04-17T21:56:14.718Z,9.77
2023-04-17T21:58:46.281Z,9.86
2023-04-17T22:01:15.490Z,9.73
2023-04-17T22:03:44.826Z,9.69
2023-04-17T22:06:14.517Z,9.73
2023-04-17T22:08:43.648Z,9.80
2023-04-17T22:11:16.151Z,9.64
2023-04-17T22:13:45.899Z,9.72
2023-04-17T22:16:15.346Z,9.80
2023-04-17T22:18:44.556Z,9.62
2023-04-17T22:21:14.367Z,9.38
2023-04-17T22:23:43.538Z,8.97
2023-04-17T22:26:15.692Z,8.69
2023-04-17T22:28:44.973Z,8.42
2023-04-17T22:31:16.480Z,8.11
2023-04-17T22:33:45.956Z,8.07
2023-04-17T22:36:15.355Z,7.89
2023-04-17T22:38:44.579Z,8.39
2023-04-17T22:41:13.965Z,8.43
2023-04-17T22:43:45.042Z,8.39
2023-04-17T22:46:14.335Z,7.94
2023-04-17T22:48:45.987Z,8.34
2023-04-17T22:51:17.002Z,8.66
2023-04-17T22:53:50.438Z,8.78
2023-04-17T22:56:19.845Z,8.86
2023-04-17T22:58:49.179Z,8.87
2023-04-17T23:01:21.332Z,9.00
2023-04-17T23:03:50.676Z,8.73
2023-04-17T23:06:24.326Z,8.92
2023-04-17T23:08:54.385Z,8.59
2023-04-17T23:11:27.041Z,9.03
2023-04-17T23:13:57.100Z,9.12
2023-04-17T23:16:26.396Z,8.95
2023-04-17T23:18:55.719Z,8.29
2023-04-17T23:21:25.932Z,8.13
2023-04-17T23:23:55.272Z,7.83
2023-04-17T23:26:25.103Z,7.60
2023-04-17T23:28:55.531Z,7.10
2023-04-17T23:31:24.879Z,6.72
2023-04-17T23:33:54.571Z,6.50
2023-04-17T23:36:23.949Z,6.43
2023-04-17T23:38:55.943Z,6.44
2023-04-17T23:41:28.893Z,6.58
2023-04-17T23:43:58.532Z,6.71
2023-04-17T23:46:27.770Z,6.58
2023-04-17T23:48:57.370Z,6.67
2023-04-17T23:51:27.142Z,6.64
2023-04-17T23:53:57.731Z,6.88
2023-04-17T23:56:29.997Z,6.85
2023-04-17T23:58:59.585Z,7.22
